Time;durP1;ratioP1;P1;durP2;ratioP2;P2;SDS_P1;SDS_P2;PMS_P1;PMS_P2;Temp;Humidity;BMP_temperature;BMP_pressure;BME280_temperature;BME280_humidity;BME280_pressure;Samples;Min_cycle;Max_cycle;Signal;HPM_P1;HPM_P2
2023/04/05 00:01:41;;;;;;;6.82;3.20;;;2.70;99.90;;;;;;5093326;28;20044;-83
2023/04/05 00:04:07;;;;;;;8.95;3.50;;;2.80;99.90;;;;;;5079087;28;20403;-82
2023/04/05 00:06:33;;;;;;;5.10;2.40;;;5.80;99.90;;;;;;5089770;27;20039;-81
2023/04/05 00:09:01;;;;;;;6.93;3.08;;;2.70;99.90;;;;;;5091314;28;20483;-83
2023/04/05 00:11:30;;;;;;;3.47;2.50;;;2.50;99.90;;;;;;5088948;28;20043;-82
2023/04/05 00:13:58;;;;;;;5.82;3.28;;;2.60;99.90;;;;;;5081766;28;20044;-81
2023/04/05 00:16:25;;;;;;;5.68;3.20;;;4.20;99.90;;;;;;5103375;28;20039;-83
2023/04/05 00:18:51;;;;;;;7.70;3.90;;;5.00;99.90;;;;;;5089420;28;20066;-83
2023/04/05 00:21:23;;;;;;;4.88;2.88;;;4.40;99.90;;;;;;5084855;28;20491;-87
2023/04/05 00:23:56;;;;;;;5.82;3.20;;;5.70;99.90;;;;;;5067994;28;20044;-87
2023/04/05 00:26:22;;;;;;;7.68;3.08;;;;;;;;;;5066642;28;20051;-86
2023/04/05 00:28:48;;;;;;;5.72;3.13;;;2.30;99.90;;;;;;5066815;28;20035;-85
2023/04/05 00:31:14;;;;;;;5.93;3.10;;;2.30;99.90;;;;;;5066402;28;20055;-86
2023/04/05 00:33:40;;;;;;;5.70;3.33;;;;;;;;;;5096060;28;20044;-81
2023/04/05 00:36:14;;;;;;;4.93;2.95;;;2.40;99.90;;;;;;5072676;28;20040;-81
2023/04/05 00:38:41;;;;;;;5.65;3.42;;;2.20;99.90;;;;;;5107153;28;20039;-82
2023/04/05 00:41:09;;;;;;;4.90;3.08;;;5.20;99.90;;;;;;5103266;28;20047;-81
2023/04/05 00:43:35;;;;;;;6.07;3.50;;;4.70;99.90;;;;;;5090359;28;20459;-83
2023/04/05 00:46:02;;;;;;;4.40;3.13;;;1.80;99.90;;;;;;5074684;28;20032;-85
2023/04/05 00:48:28;;;;;;;5.75;3.10;;;1.70;99.90;;;;;;5071215;28;20078;-83
2023/04/05 00:50:54;;;;;;;5.22;3.15;;;1.90;99.90;;;;;;5089215;28;20083;-80
2023/04/05 00:53:20;;;;;;;7.15;3.58;;;2.10;99.90;;;;;;5092275;28;20487;-83
2023/04/05 00:55:47;;;;;;;6.15;2.83;;;2.20;99.90;;;;;;5125237;28;20050;-86
2023/04/05 00:58:16;;;;;;;6.35;3.45;;;1.50;99.90;;;;;;5072599;28;20043;-84
2023/04/05 01:00:52;;;;;;;8.55;3.70;;;1.60;99.90;;;;;;5106434;28;20051;-84
2023/04/05 01:03:19;;;;;;;7.75;3.20;;;2.90;99.90;;;;;;5078994;28;20149;-85
2023/04/05 01:06:08;;;;;;;5.68;3.08;;;1.10;99.90;;;;;;5097803;28;20051;-87
2023/04/05 01:08:50;;;;;;;3.60;2.97;;;1.90;99.90;;;;;;5074221;28;20043;-88
2023/04/05 01:11:17;;;;;;;6.72;2.95;;;1.90;99.90;;;;;;5073004;28;20043;-86
2023/04/05 01:13:45;;;;;;;5.30;2.75;;;1.70;99.90;;;;;;5088732;28;20043;-85
2023/04/05 01:16:11;;;;;;;6.88;3.50;;;4.90;99.90;;;;;;5088734;28;20088;-87
2023/04/05 01:18:37;;;;;;;5.32;3.03;;;5.70;99.90;;;;;;5074046;28;20051;-85
2023/04/05 01:21:22;;;;;;;8.45;3.40;;;2.50;99.90;;;;;;5068167;28;20043;-82
2023/04/05 01:24:24;;;;;;;6.30;3.47;;;1.60;99.90;;;;;;5067989;28;20593;-89
2023/04/05 01:27:01;;;;;;;7.63;3.75;;;1.70;99.90;;;;;;5105588;28;20178;-88
2023/04/05 01:29:49;;;;;;;6.82;3.25;;;1.80;99.90;;;;;;5088212;28;20046;-87
2023/04/05 01:32:28;;;;;;;6.20;3.03;;;1.70;99.90;;;;;;5075141;28;20050;-90
2023/04/05 01:35:19;;;;;;;6.32;3.35;;;1.70;99.90;;;;;;5108551;28;20039;-90
2023/04/05 01:37:48;;;;;;;5.93;3.35;;;1.70;99.90;;;;;;5078116;28;20399;-88
2023/04/05 01:40:15;;;;;;;4.55;3.10;;;1.50;99.90;;;;;;5073112;28;20040;-86
2023/04/05 01:42:43;;;;;;;5.35;2.58;;;3.20;99.90;;;;;;5093299;28;20057;-83
2023/04/05 01:45:09;;;;;;;4.47;2.95;;;1.30;99.90;;;;;;5095520;28;20059;-88
2023/04/05 01:47:35;;;;;;;9.00;3.30;;;0.60;99.90;;;;;;5095626;28;20119;-86
2023/04/05 01:50:01;;;;;;;6.75;3.88;;;1.20;99.90;;;;;;5074884;28;20047;-87
2023/04/05 01:52:26;;;;;;;5.95;3.22;;;1.60;99.90;;;;;;5090438;28;20399;-88
2023/04/05 01:54:52;;;;;;;5.57;3.58;;;1.20;99.90;;;;;;5107854;28;20040;-87
2023/04/05 01:57:18;;;;;;;7.72;3.28;;;1.30;99.90;;;;;;5101523;28;20051;-83
2023/04/05 01:59:43;;;;;;;5.65;3.67;;;3.60;99.90;;;;;;5085260;28;20075;-87
2023/04/05 02:02:09;;;;;;;5.72;3.72;;;4.30;99.90;;;;;;5097552;28;20055;-91
2023/04/05 02:04:35;;;;;;;6.57;2.72;;;4.10;99.90;;;;;;5077147;28;20036;-86
2023/04/05 02:07:01;;;;;;;5.43;3.10;;;5.20;99.90;;;;;;5091276;28;20100;-93
2023/04/05 02:09:27;;;;;;;8.48;3.42;;;1.10;99.90;;;;;;5121186;27;20404;-89
2023/04/05 02:11:53;;;;;;;7.20;3.38;;;1.10;99.90;;;;;;5096775;28;20044;-86
2023/04/05 02:14:19;;;;;;;8.13;3.53;;;3.40;99.90;;;;;;5107175;28;20047;-91
2023/04/05 02:16:45;;;;;;;4.40;3.03;;;1.30;99.90;;;;;;5069696;28;20395;-88
2023/04/05 02:19:12;;;;;;;7.05;3.20;;;1.20;99.90;;;;;;5095128;28;20051;-89
2023/04/05 02:21:39;;;;;;;5.60;3.15;;;;;;;;;;5076708;28;20040;-86
2023/04/05 02:24:05;;;;;;;5.70;2.95;;;1.30;99.90;;;;;;5084518;28;20109;-90
2023/04/05 02:26:31;;;;;;;5.20;4.03;;;1.30;99.90;;;;;;5102155;28;20044;-88
2023/04/05 02:28:56;;;;;;;7.80;3.88;;;1.30;99.90;;;;;;5110582;27;20036;-91
2023/04/05 02:31:22;;;;;;;4.95;3.08;;;1.60;99.90;;;;;;5079206;28;20043;-87
2023/04/05 02:33:48;;;;;;;6.90;3.17;;;3.50;99.90;;;;;;5109317;28;20108;-88
2023/04/05 02:36:13;;;;;;;6.38;3.60;;;3.70;99.90;;;;;;5081515;28;20093;-91
2023/04/05 02:38:39;;;;;;;9.00;3.95;;;1.00;99.90;;;;;;5090317;28;20118;-90
2023/04/05 02:41:10;;;;;;;5.65;3.88;;;0.90;99.90;;;;;;5085398;28;20046;-88
2023/04/05 02:43:36;;;;;;;6.57;4.70;;;;;;;;;;5112281;28;20131;-90
2023/04/05 02:46:02;;;;;;;6.88;4.10;;;1.10;99.90;;;;;;5095940;27;20047;-91
2023/04/05 02:48:27;;;;;;;8.60;4.43;;;1.60;99.90;;;;;;5110499;28;20050;-82
2023/04/05 02:50:54;;;;;;;5.85;3.75;;;0.90;99.90;;;;;;5088169;28;20050;-87
2023/04/05 02:53:20;;;;;;;7.00;4.45;;;0.90;99.90;;;;;;5112419;28;20423;-84
2023/04/05 02:55:53;;;;;;;6.43;4.68;;;0.80;99.90;;;;;;5092689;28;20035;-89
2023/04/05 02:58:19;;;;;;;13.43;5.03;;;0.60;99.90;;;;;;5089416;28;20054;-88
2023/04/05 03:00:49;;;;;;;7.18;4.57;;;1.60;99.90;;;;;;5095461;28;20301;-85
2023/04/05 03:03:19;;;;;;;10.52;4.70;;;1.40;99.90;;;;;;5098186;28;20059;-84
2023/04/05 03:05:47;;;;;;;11.68;4.57;;;1.00;99.90;;;;;;5063176;28;20075;-90
2023/04/05 03:08:18;;;;;;;9.40;4.13;;;1.00;99.90;;;;;;5068083;28;20066;-88
2023/04/05 03:10:47;;;;;;;8.20;3.42;;;0.80;99.90;;;;;;5086586;28;20052;-85
2023/04/05 03:13:13;;;;;;;11.25;4.07;;;0.40;99.90;;;;;;5103616;28;20048;-86
2023/04/05 03:15:40;;;;;;;8.70;4.15;;;4.50;99.90;;;;;;5067611;28;20091;-82
2023/04/05 03:18:07;;;;;;;8.98;4.40;;;0.80;99.90;;;;;;5065536;28;20044;-89
2023/04/05 03:20:35;;;;;;;7.13;3.80;;;3.40;99.90;;;;;;5083026;28;20135;-88
2023/04/05 03:23:00;;;;;;;7.47;4.50;;;2.00;99.90;;;;;;5080436;28;20948;-91
2023/04/05 03:25:27;;;;;;;6.85;3.67;;;0.70;99.90;;;;;;5108014;28;20047;-87
2023/04/05 03:27:54;;;;;;;7.63;3.92;;;0.70;99.90;;;;;;5082988;28;20032;-87
2023/04/05 03:30:19;;;;;;;6.47;3.83;;;2.70;99.90;;;;;;5109953;28;20088;-87
2023/04/05 03:32:45;;;;;;;8.35;4.53;;;0.20;99.90;;;;;;5072629;28;20036;-88
2023/04/05 03:35:12;;;;;;;8.32;4.60;;;2.30;99.90;;;;;;5122974;27;20048;-88
2023/04/05 03:37:37;;;;;;;6.43;4.40;;;1.70;99.90;;;;;;5116121;28;20031;-87
2023/04/05 03:40:05;;;;;;;6.90;4.43;;;0.20;99.90;;;;;;5132125;28;20095;-82
2023/04/05 03:42:30;;;;;;;9.32;4.65;;;0.70;99.90;;;;;;5098425;28;20039;-90
2023/04/05 03:44:58;;;;;;;7.18;4.30;;;0.80;99.90;;;;;;5089902;28;20040;-87
2023/04/05 03:47:25;;;;;;;6.88;4.05;;;0.70;99.90;;;;;;5070687;28;20577;-88
2023/04/05 03:49:51;;;;;;;6.00;3.85;;;0.50;99.90;;;;;;5103641;28;20166;-86
2023/04/05 03:52:16;;;;;;;7.30;3.92;;;0.70;99.90;;;;;;5087698;28;20075;-88
2023/04/05 03:54:42;;;;;;;7.97;3.92;;;;;;;;;;5091675;28;20075;-91
2023/04/05 03:57:08;;;;;;;6.20;3.80;;;;;;;;;;5088416;28;20403;-89
2023/04/05 03:59:34;;;;;;;6.38;3.50;;;0.70;99.90;;;;;;5074931;28;20106;-85
2023/04/05 04:02:00;;;;;;;7.63;4.38;;;0.80;99.90;;;;;;5094622;28;20507;-91
2023/04/05 04:04:26;;;;;;;9.52;4.70;;;0.60;99.90;;;;;;5069983;28;20079;-90
2023/04/05 04:06:53;;;;;;;8.65;4.65;;;1.70;99.90;;;;;;5104856;28;20105;-88
2023/04/05 04:09:18;;;;;;;7.55;4.10;;;0.40;99.90;;;;;;5075807;28;20043;-90
2023/04/05 04:11:44;;;;;;;11.02;4.82;;;2.10;99.90;;;;;;5102390;28;20040;-88
2023/04/05 04:14:10;;;;;;;8.32;4.13;;;3.10;99.90;;;;;;5072471;28;20075;-91
2023/04/05 04:16:35;;;;;;;6.57;4.00;;;0.50;99.90;;;;;;5105817;28;20040;-86
2023/04/05 04:19:01;;;;;;;6.47;3.97;;;0.80;99.90;;;;;;5099710;28;20764;-89
2023/04/05 04:21:26;;;;;;;6.85;3.80;;;2.50;99.90;;;;;;5115098;28;20051;-91
2023/04/05 04:23:52;;;;;;;7.10;4.80;;;0.40;99.90;;;;;;5062494;28;20040;-88
2023/04/05 04:26:25;;;;;;;10.30;5.30;;;0.40;99.90;;;;;;5097169;28;20036;-90
2023/04/05 04:28:52;;;;;;;5.57;4.45;;;2.80;99.90;;;;;;5083355;28;20070;-89
2023/04/05 04:31:20;;;;;;;10.48;5.10;;;0.30;99.90;;;;;;5075987;28;20368;-89
2023/04/05 04:33:49;;;;;;;5.88;4.25;;;0.40;99.90;;;;;;5066684;28;20039;-91
2023/04/05 04:36:16;;;;;;;6.68;4.25;;;0.10;99.90;;;;;;5074209;28;20157;-86
2023/04/05 04:38:43;;;;;;;11.93;4.50;;;0.10;99.90;;;;;;5077473;28;20081;-91
2023/04/05 04:41:12;;;;;;;6.30;4.13;;;3.10;99.90;;;;;;5075713;28;20083;-89
2023/04/05 04:43:41;;;;;;;7.68;4.93;;;-0.10;99.90;;;;;;5072498;28;20063;-91
2023/04/05 04:46:13;;;;;;;7.32;4.32;;;2.30;99.90;;;;;;5077644;28;20138;-90
2023/04/05 04:48:41;;;;;;;5.97;4.65;;;0.50;99.90;;;;;;5084610;28;20040;-89
2023/04/05 04:51:07;;;;;;;5.75;4.43;;;2.90;99.90;;;;;;5095312;28;20105;-87
2023/04/05 04:53:32;;;;;;;9.13;5.18;;;3.50;99.90;;;;;;5071162;28;20040;-90
2023/04/05 04:55:59;;;;;;;9.88;4.63;;;2.30;99.90;;;;;;5074076;28;20036;-93
2023/04/05 04:58:25;;;;;;;9.68;5.18;;;3.30;99.90;;;;;;5062812;28;20135;-92
2023/04/05 05:00:51;;;;;;;6.68;4.72;;;0.20;99.90;;;;;;5091514;28;20102;-92
2023/04/05 05:03:18;;;;;;;7.93;4.50;;;-0.20;99.90;;;;;;5085853;28;20051;-93
2023/04/05 05:05:52;;;;;;;13.13;5.88;;;-0.20;99.90;;;;;;5112206;27;20071;-92
2023/04/05 05:08:18;;;;;;;;;;;0.40;99.90;;;;;;5087805;28;20036;-89
2023/04/05 05:10:44;;;;;;;10.88;4.78;;;0.10;99.90;;;;;;5081221;28;19927;-91
2023/04/05 05:13:10;;;;;;;14.00;5.68;;;;;;;;;;5070653;28;20040;-89
2023/04/05 05:15:39;;;;;;;7.95;5.45;;;0.40;99.90;;;;;;5090689;28;20088;-91
2023/04/05 05:18:05;;;;;;;10.80;6.65;;;;;;;;;;5072881;28;20039;-92
2023/04/05 05:20:31;;;;;;;25.98;12.85;;;0.40;99.90;;;;;;5090442;28;20127;-89
2023/04/05 05:23:00;;;;;;;16.20;10.35;;;0.10;99.90;;;;;;5129809;28;20047;-90
2023/04/05 05:25:28;;;;;;;14.73;8.73;;;0.20;99.90;;;;;;5104253;28;20069;-83
2023/04/05 05:27:54;;;;;;;12.65;6.55;;;;;;;;;;5089135;28;20043;-86
2023/04/05 05:30:20;;;;;;;11.55;6.57;;;0.40;99.90;;;;;;5097833;28;20105;-89
2023/04/05 05:32:46;;;;;;;9.77;6.40;;;;;;;;;;5087395;28;20052;-90
2023/04/05 05:35:15;;;;;;;9.82;5.65;;;0.40;99.90;;;;;;5088071;28;20036;-86
2023/04/05 05:37:44;;;;;;;10.85;6.60;;;0.60;99.90;;;;;;5093541;28;20051;-88
2023/04/05 05:40:15;;;;;;;9.98;5.70;;;3.10;99.90;;;;;;5108398;28;20040;-90
2023/04/05 05:42:40;;;;;;;10.00;5.90;;;0.40;99.90;;;;;;5093998;28;20119;-85
2023/04/05 05:45:07;;;;;;;8.82;5.60;;;3.70;99.90;;;;;;5087295;27;20099;-88
2023/04/05 05:47:32;;;;;;;12.32;6.93;;;0.40;99.90;;;;;;5076516;27;20051;-85
2023/04/05 05:49:58;;;;;;;17.10;5.70;;;;;;;;;;5079630;28;20039;-89
2023/04/05 05:52:24;;;;;;;11.98;6.70;;;;;;;;;;5091407;27;20048;-85
2023/04/05 05:54:51;;;;;;;12.77;6.78;;;0.40;99.90;;;;;;5107836;27;20043;-83
2023/04/05 05:57:18;;;;;;;13.48;6.82;;;-0.30;99.90;;;;;;5082980;27;20057;-86
2023/04/05 05:59:48;;;;;;;12.02;7.20;;;0.30;99.90;;;;;;5075420;27;20440;-90
2023/04/05 06:02:17;;;;;;;12.75;7.78;;;2.70;99.90;;;;;;5083484;28;20455;-88
2023/04/05 06:04:44;;;;;;;11.65;7.75;;;2.90;99.90;;;;;;5076167;28;20232;-86
2023/04/05 06:07:11;;;;;;;13.07;8.07;;;0.10;99.90;;;;;;5076767;28;20043;-89
2023/04/05 06:09:36;;;;;;;11.38;6.65;;;0.30;99.90;;;;;;5096029;27;20031;-90
2023/04/05 06:12:02;;;;;;;10.65;7.88;;;0.30;99.90;;;;;;5121386;27;20445;-92
2023/04/05 06:14:30;;;;;;;12.35;8.77;;;0.60;99.90;;;;;;5082117;28;20040;-85
2023/04/05 06:16:56;;;;;;;16.92;9.23;;;0.40;99.90;;;;;;5092849;28;20114;-86
2023/04/05 06:19:22;;;;;;;12.18;8.50;;;0.50;99.90;;;;;;5113576;27;20047;-82
2023/04/05 06:21:48;;;;;;;12.38;8.85;;;0.50;99.90;;;;;;5103687;28;20071;-87
2023/04/05 06:24:14;;;;;;;13.15;9.18;;;1.20;99.90;;;;;;5077833;28;20063;-90
2023/04/05 06:26:40;;;;;;;15.43;9.23;;;4.10;99.90;;;;;;5075815;28;20071;-88
2023/04/05 06:29:05;;;;;;;16.83;9.48;;;0.60;99.90;;;;;;5088475;28;20036;-88
2023/04/05 06:31:33;;;;;;;13.43;8.38;;;0.90;99.90;;;;;;5093709;27;20444;-83
2023/04/05 06:33:59;;;;;;;18.50;9.40;;;0.90;99.90;;;;;;5069464;28;20036;-82
2023/04/05 06:36:25;;;;;;;14.98;9.85;;;1.60;99.90;;;;;;5099257;28;20062;-81
2023/04/05 06:38:52;;;;;;;15.27;9.80;;;0.90;99.90;;;;;;5075612;28;20048;-84
2023/04/05 06:41:18;;;;;;;17.20;9.38;;;0.40;99.90;;;;;;5093061;27;20048;-82
2023/04/05 06:43:43;;;;;;;14.10;9.38;;;0.60;99.90;;;;;;5055308;28;20070;-84
2023/04/05 06:46:11;;;;;;;12.25;9.05;;;0.40;99.90;;;;;;5108773;28;20054;-88
2023/04/05 06:48:38;;;;;;;14.75;9.77;;;;;;;;;;5074868;28;20048;-90
2023/04/05 06:51:04;;;;;;;19.70;9.68;;;1.20;99.90;;;;;;5084379;28;20135;-87
2023/04/05 06:53:30;;;;;;;15.50;9.98;;;;;;;;;;5090110;28;20119;-93
2023/04/05 06:55:57;;;;;;;13.35;9.13;;;1.30;99.90;;;;;;5071140;28;20097;-84
2023/04/05 06:58:25;;;;;;;12.98;9.43;;;4.70;99.90;;;;;;5087602;28;20107;-85
2023/04/05 07:00:51;;;;;;;18.88;10.18;;;0.80;99.90;;;;;;5081809;28;20109;-90
2023/04/05 07:03:19;;;;;;;16.13;9.40;;;0.60;99.90;;;;;;5081907;28;20036;-83
2023/04/05 07:05:58;;;;;;;12.85;9.23;;;1.60;99.90;;;;;;4735103;28;10000449;-87
2023/04/05 07:08:24;;;;;;;16.20;9.70;;;4.80;99.90;;;;;;5090369;28;20043;-84
2023/04/05 07:10:51;;;;;;;15.88;9.80;;;1.20;99.90;;;;;;5093895;28;20159;-81
2023/04/05 07:13:18;;;;;;;18.13;10.20;;;1.70;99.90;;;;;;5079277;28;20044;-88
2023/04/05 07:15:44;;;;;;;13.25;9.82;;;4.10;99.90;;;;;;5064491;28;20403;-85
2023/04/05 07:18:11;;;;;;;16.38;9.73;;;4.70;99.90;;;;;;5064317;28;20129;-85
2023/04/05 07:20:41;;;;;;;13.57;9.77;;;2.00;99.90;;;;;;5088576;28;20040;-82
2023/04/05 07:23:06;;;;;;;14.63;9.52;;;3.60;99.90;;;;;;5113387;27;20043;-84
2023/04/05 07:25:32;;;;;;;14.05;10.07;;;1.90;99.90;;;;;;5044097;28;20718;-81
2023/04/05 07:27:58;;;;;;;15.93;9.25;;;;;;;;;;5062698;28;20127;-79
2023/04/05 07:30:27;;;;;;;14.35;9.07;;;2.10;99.90;;;;;;5079121;28;20036;-83
2023/04/05 07:32:53;;;;;;;13.02;9.88;;;2.10;99.90;;;;;;5066874;28;20035;-82
2023/04/05 07:35:23;;;;;;;13.98;8.77;;;2.20;99.90;;;;;;5063802;28;20610;-87
2023/04/05 07:37:52;;;;;;;13.50;9.65;;;5.60;99.90;;;;;;5093867;28;20185;-83
2023/04/05 07:40:40;;;;;;;14.50;8.82;;;4.80;99.90;;;;;;5085268;28;20123;-83
2023/04/05 07:43:07;;;;;;;16.65;9.65;;;2.20;99.90;;;;;;5085864;28;20076;-82
2023/04/05 07:45:38;;;;;;;15.10;9.45;;;2.80;99.90;;;;;;5051344;28;20174;-85
2023/04/05 07:48:06;;;;;;;13.88;9.52;;;2.60;99.90;;;;;;5074608;28;20086;-83
2023/04/05 07:50:39;;;;;;;15.38;9.55;;;2.60;99.90;;;;;;5095136;28;20130;-82
2023/04/05 07:53:10;;;;;;;13.15;9.63;;;5.60;99.90;;;;;;5071114;28;20052;-83
2023/04/05 07:55:57;;;;;;;9.40;7.30;;;2.80;99.90;;;;;;5106394;28;20099;-85
2023/04/05 07:58:24;;;;;;;15.27;7.80;;;6.20;99.90;;;;;;5089861;28;20055;-84
2023/04/05 08:00:52;;;;;;;13.68;8.95;;;2.70;99.90;;;;;;5069649;28;20035;-86
2023/04/05 08:03:18;;;;;;;11.05;7.32;;;;;;;;;;5108283;28;20085;-91
2023/04/05 08:05:43;;;;;;;9.50;7.18;;;3.20;99.90;;;;;;5090489;28;20063;-88
2023/04/05 08:08:10;;;;;;;15.75;7.78;;;2.70;99.90;;;;;;5109157;28;20125;-82
2023/04/05 08:10:39;;;;;;;10.40;6.03;;;3.40;99.90;;;;;;5072158;28;20044;-89
2023/04/05 08:13:07;;;;;;;11.45;6.30;;;;;;;;;;5091221;28;20036;-88
2023/04/05 08:15:33;;;;;;;18.77;6.65;;;3.60;99.90;;;;;;5074198;28;20048;-89
2023/04/05 08:17:58;;;;;;;10.13;5.95;;;6.30;99.90;;;;;;5073810;28;20044;-86
2023/04/05 08:20:24;;;;;;;6.57;5.82;;;6.70;99.90;;;;;;5073685;28;20115;-85
2023/04/05 08:22:50;;;;;;;6.70;5.53;;;;;;;;;;5106460;28;20138;-87
2023/04/05 08:25:16;;;;;;;9.13;5.80;;;3.90;99.90;;;;;;5072687;28;20727;-85
2023/04/05 08:27:41;;;;;;;8.90;5.95;;;3.80;99.90;;;;;;5071561;28;20036;-84
2023/04/05 08:30:07;;;;;;;12.77;5.63;;;3.70;99.90;;;;;;5087162;28;20181;-83
2023/04/05 08:32:34;;;;;;;11.50;5.82;;;4.00;99.90;;;;;;5073571;28;20032;-84
2023/04/05 08:35:00;;;;;;;9.27;6.68;;;3.80;99.90;;;;;;5090095;28;20050;-83
2023/04/05 08:37:25;;;;;;;7.50;5.40;;;4.20;99.90;;;;;;5088017;28;20039;-84
2023/04/05 08:39:51;;;;;;;6.53;4.97;;;4.10;99.90;;;;;;5070458;28;20036;-84
2023/04/05 08:42:33;;;;;;;8.43;5.70;;;4.10;99.90;;;;;;5086780;28;20134;-87
2023/04/05 08:45:08;;;;;;;9.77;5.88;;;2.80;99.90;;;;;;5087187;28;20192;-88
2023/04/05 08:47:36;;;;;;;197.15;15.27;;;4.70;99.90;;;;;;5074737;28;20103;-90
2023/04/05 08:50:03;;;;;;;11.55;5.03;;;5.20;99.90;;;;;;5133139;28;20032;-91
2023/04/05 08:52:30;;;;;;;20.70;5.22;;;4.80;99.90;;;;;;5124478;28;20043;-85
2023/04/05 08:54:56;;;;;;;8.18;4.95;;;5.10;99.90;;;;;;5077274;28;20027;-84
2023/04/05 08:57:27;;;;;;;16.38;4.72;;;4.90;99.90;;;;;;5091460;28;20039;-85
2023/04/05 08:59:55;;;;;;;8.13;4.28;;;4.90;99.90;;;;;;5084588;28;20032;-84
2023/04/05 09:02:23;;;;;;;10.27;5.25;;;7.60;99.90;;;;;;5109235;28;20705;-83
2023/04/05 09:04:50;;;;;;;65.40;6.90;;;7.20;99.90;;;;;;5074242;28;20047;-81
2023/04/05 09:07:16;;;;;;;16.35;5.65;;;7.60;99.90;;;;;;5107304;28;20096;-82
2023/04/05 09:09:47;;;;;;;6.20;4.03;;;5.40;99.90;;;;;;5070889;28;20387;-87
2023/04/05 09:12:14;;;;;;;27.98;9.88;;;6.00;99.90;;;;;;5094472;28;20097;-87
2023/04/05 09:14:41;;;;;;;16.55;4.72;;;8.40;99.90;;;;;;5089547;28;20127;-87
2023/04/05 09:17:08;;;;;;;8.10;4.75;;;9.00;99.90;;;;;;5074234;28;20421;-88
2023/04/05 09:19:35;;;;;;;8.38;4.78;;;;;;;;;;5070814;28;20047;-87
2023/04/05 09:22:32;;;;;;;4.35;3.95;;;5.80;99.90;;;;;;5070873;28;20040;-88
2023/04/05 09:24:58;;;;;;;4.57;4.13;;;8.10;99.90;;;;;;5088911;28;20043;-87
2023/04/05 09:28:39;;;;;;;13.70;5.93;;;8.00;99.90;;;;;;5038851;28;20039;-87
2023/04/05 09:36:08;;;;;;;5.80;3.63;;;6.20;99.90;;;;;;5047842;28;20051;-82
2023/04/05 09:38:44;;;;;;;5.53;3.88;;;6.40;99.90;;;;;;5044578;28;20049;-84
2023/04/05 09:41:10;;;;;;;5.53;4.10;;;9.10;99.90;;;;;;5030854;28;20137;-82
2023/04/05 09:43:40;;;;;;;8.30;3.65;;;6.40;99.90;;;;;;5064888;28;20127;-83
2023/04/05 09:46:27;;;;;;;9.73;5.47;;;6.60;99.90;;;;;;4358008;28;10000715;-84
2023/04/05 09:48:53;;;;;;;8.45;4.28;;;6.60;99.90;;;;;;5030678;28;20051;-83
2023/04/05 09:51:18;;;;;;;9.02;5.47;;;8.70;99.90;;;;;;5061823;28;20053;-85
2023/04/05 09:54:04;;;;;;;11.38;4.35;;;7.70;99.90;;;;;;5050102;28;20126;-85
2023/04/05 09:56:40;;;;;;;7.22;3.83;;;6.60;99.90;;;;;;5044590;28;20088;-83
2023/04/05 09:59:09;;;;;;;6.45;4.30;;;6.70;99.90;;;;;;5031862;28;20070;-85
2023/04/05 10:01:35;;;;;;;9.48;6.30;;;9.40;99.90;;;;;;5069359;28;20132;-86
2023/04/05 10:04:03;;;;;;;7.38;4.40;;;7.70;99.90;;;;;;5109452;28;20035;-83
2023/04/05 10:06:40;;;;;;;3.33;3.00;;;6.90;99.90;;;;;;5091368;28;20051;-83
2023/04/05 10:09:07;;;;;;;8.10;4.05;;;7.00;99.90;;;;;;5089598;28;20067;-84
2023/04/05 10:11:35;;;;;;;7.13;3.60;;;9.40;99.90;;;;;;5089615;28;20040;-87
2023/04/05 10:14:02;;;;;;;5.95;3.90;;;9.80;99.90;;;;;;5091385;28;20039;-84
2023/04/05 10:16:32;;;;;;;8.57;3.45;;;8.60;99.90;;;;;;5090382;28;20043;-81
2023/04/05 10:18:57;;;;;;;6.95;4.40;;;7.40;99.90;;;;;;5090479;28;20065;-81
2023/04/05 10:21:30;;;;;;;7.88;4.38;;;7.50;99.90;;;;;;5068299;28;20040;-81
2023/04/05 10:24:33;;;;;;;6.43;3.92;;;8.50;99.90;;;;;;5106812;28;20048;-81
2023/04/05 10:27:41;;;;;;;5.80;3.95;;;7.70;99.90;;;;;;5044652;28;20054;-82
2023/04/05 10:30:08;;;;;;;9.48;3.97;;;7.80;99.90;;;;;;5093465;28;20112;-83
2023/04/05 10:32:55;;;;;;;5.05;3.60;;;7.90;99.90;;;;;;5102582;28;20582;-84
2023/04/05 10:35:39;;;;;;;5.65;3.63;;;8.00;99.90;;;;;;5106724;28;20116;-82
2023/04/05 10:38:11;;;;;;;4.25;3.85;;;8.10;99.90;;;;;;5072939;28;20043;-83
2023/04/05 10:40:39;;;;;;;7.55;4.47;;;8.20;99.90;;;;;;5106835;28;20043;-84
2023/04/05 10:43:14;;;;;;;9.63;4.82;;;8.50;99.90;;;;;;5081765;28;20040;-81
2023/04/05 10:45:40;;;;;;;4.93;4.20;;;8.30;99.90;;;;;;5067686;28;20067;-80
2023/04/05 10:48:25;;;;;;;6.00;4.50;;;8.40;99.90;;;;;;5065746;28;20047;-83
2023/04/05 10:50:51;;;;;;;;;;;10.20;99.90;;;;;;5069759;28;20108;-81
2023/04/05 10:53:19;;;;;;;6.30;4.07;;;10.80;99.90;;;;;;5100139;28;20430;-81
2023/04/05 10:55:46;;;;;;;8.82;4.38;;;8.50;99.90;;;;;;5083366;28;20047;-82
2023/04/05 10:58:14;;;;;;;6.22;4.53;;;9.10;99.90;;;;;;5071832;28;20567;-81
2023/04/05 11:00:40;;;;;;;10.18;4.63;;;8.50;99.90;;;;;;5073687;28;20054;-81
2023/04/05 11:03:08;;;;;;;9.68;4.40;;;8.60;99.90;;;;;;5088614;28;20054;-85
2023/04/05 11:05:36;;;;;;;5.93;3.88;;;8.70;99.90;;;;;;5088716;28;20075;-84
2023/04/05 11:08:08;;;;;;;5.65;3.97;;;9.70;99.90;;;;;;5107858;28;20196;-83
2023/04/05 11:10:38;;;;;;;4.38;3.97;;;8.90;99.90;;;;;;5073291;28;20039;-81
2023/04/05 11:13:06;;;;;;;6.22;4.47;;;10.50;99.90;;;;;;5106110;28;20449;-84
2023/04/05 11:15:34;;;;;;;4.75;4.20;;;9.10;99.90;;;;;;5089049;28;20046;-84
2023/04/05 11:18:08;;;;;;;6.68;4.45;;;9.20;99.40;;;;;;5088826;28;20077;-82
2023/04/05 11:20:50;;;;;;;;;;;11.60;99.70;;;;;;5090129;28;20028;-81
2023/04/05 11:23:21;;;;;;;5.75;4.15;;;9.40;99.20;;;;;;5088850;28;19973;-83
2023/04/05 11:25:58;;;;;;;5.40;3.67;;;9.50;99.40;;;;;;5068381;28;20050;-84
2023/04/05 11:28:44;;;;;;;6.47;3.92;;;10.10;99.30;;;;;;5087106;28;20035;-86
2023/04/05 11:31:14;;;;;;;6.18;4.78;;;9.70;98.00;;;;;;5070545;28;20173;-84
2023/04/05 11:33:49;;;;;;;5.75;4.18;;;9.80;98.20;;;;;;5070293;28;20070;-87
2023/04/05 11:36:50;;;;;;;5.53;4.03;;;9.80;97.70;;;;;;5090673;28;20039;-83
2023/04/05 11:39:19;;;;;;;10.40;4.68;;;9.90;97.60;;;;;;5080077;28;20043;-86
2023/04/05 11:41:46;;;;;;;6.53;4.00;;;10.00;97.60;;;;;;5087038;28;20044;-84
2023/04/05 11:44:16;;;;;;;6.03;4.25;;;11.30;97.60;;;;;;5107180;28;20053;-87
2023/04/05 11:46:45;;;;;;;5.68;3.88;;;10.60;97.90;;;;;;5089295;28;20067;-87
2023/04/05 11:49:11;;;;;;;4.93;3.95;;;10.80;96.80;;;;;;5088953;28;20144;-87
2023/04/05 11:51:47;;;;;;;5.88;3.83;;;11.70;97.00;;;;;;5072585;28;20044;-88
2023/04/05 11:54:14;;;;;;;8.70;4.25;;;13.50;95.70;;;;;;5090381;28;20126;-86
2023/04/05 11:56:41;;;;;;;6.68;3.95;;;;;;;;;;5090401;28;20036;-87
2023/04/05 11:59:07;;;;;;;10.57;3.83;;;;;;;;;;5074462;28;20039;-86
2023/04/05 12:01:32;;;;;;;4.10;3.35;;;11.10;94.30;;;;;;5069872;28;20047;-82
2023/04/05 12:03:58;;;;;;;5.97;3.60;;;13.50;94.80;;;;;;5089374;28;20035;-84
2023/04/05 12:06:27;;;;;;;27.48;5.82;;;12.90;93.90;;;;;;5116936;28;20043;-86
2023/04/05 12:08:54;;;;;;;931.53;88.28;;;12.80;94.00;;;;;;5091331;28;20082;-87
2023/04/05 12:11:29;;;;;;;179.95;15.10;;;11.90;93.40;;;;;;5092897;28;20046;-82
2023/04/05 12:13:58;;;;;;;12.00;3.63;;;11.60;93.30;;;;;;5089394;28;20042;-86
2023/04/05 12:16:24;;;;;;;17.25;4.50;;;11.80;93.10;;;;;;5080300;28;20093;-85
2023/04/05 12:18:54;;;;;;;5.07;3.95;;;12.20;92.60;;;;;;5072340;28;20113;-86
2023/04/05 12:21:20;;;;;;;18.20;4.55;;;11.90;92.30;;;;;;5099003;28;20456;-86
2023/04/05 12:23:47;;;;;;;7.40;3.95;;;12.00;92.40;;;;;;5087818;27;20042;-86
2023/04/05 12:26:14;;;;;;;5.00;3.85;;;12.80;91.70;;;;;;5086373;27;20070;-87
2023/04/05 12:28:57;;;;;;;7.35;4.50;;;13.70;91.70;;;;;;5088337;27;20047;-85
2023/04/05 12:31:45;;;;;;;3.85;3.45;;;12.10;90.70;;;;;;5082743;27;20047;-85
2023/04/05 12:34:15;;;;;;;5.43;3.47;;;12.20;90.90;;;;;;5108083;27;20066;-84
2023/04/05 12:36:45;;;;;;;6.97;4.00;;;12.40;91.50;;;;;;5086446;27;20092;-86
2023/04/05 12:39:11;;;;;;;6.03;3.78;;;12.50;91.20;;;;;;5084927;28;20059;-80
2023/04/05 12:41:38;;;;;;;35.47;5.60;;;11.60;90.50;;;;;;5089600;28;20031;-89
2023/04/05 12:44:29;;;;;;;68.75;7.95;;;14.00;90.10;;;;;;5076779;28;20074;-80
2023/04/05 12:47:01;;;;;;;74.32;8.52;;;14.80;89.50;;;;;;5070414;28;20043;-86
2023/04/05 12:49:37;;;;;;;5.65;3.55;;;13.00;88.30;;;;;;5103680;28;20062;-89
2023/04/05 12:52:03;;;;;;;6.75;3.75;;;14.80;87.80;;;;;;5065196;28;20085;-89
2023/04/05 12:54:31;;;;;;;6.40;3.90;;;13.20;86.80;;;;;;5073435;28;20055;-89
2023/04/05 12:57:13;;;;;;;;;;;;;;;;;;;;;
2023/04/05 13:00:04;;;;;;;5.65;3.58;;;13.20;82.70;;;;;;5104425;28;20075;-90
2023/04/05 13:02:55;;;;;;;4.00;3.40;;;11.10;82.20;;;;;;5058035;28;20184;-87
2023/04/05 13:05:30;;;;;;;4.20;3.25;;;13.40;85.80;;;;;;5044968;28;20412;-90
2023/04/05 13:07:56;;;;;;;6.80;3.60;;;;;;;;;;5062138;28;20400;-89
2023/04/05 13:10:23;;;;;;;6.03;3.80;;;13.30;80.50;;;;;;5028115;28;20048;-91
2023/04/05 13:12:49;;;;;;;4.68;3.40;;;13.50;81.80;;;;;;5030934;28;20060;-88
2023/04/05 13:15:22;;;;;;;3.67;3.13;;;15.40;83.40;;;;;;5049306;28;20497;-90
2023/04/05 13:18:01;;;;;;;4.90;3.65;;;15.00;83.10;;;;;;5044302;28;20044;-90